createdAt,value
2022-07-29T19:07:03.765Z,4.18
2022-07-29T19:09:32.683Z,4.45
2022-07-29T19:12:03.749Z,3.25
2022-07-29T19:14:42.706Z,3.60
2022-07-29T19:17:11.560Z,4.63
2022-07-29T19:19:45.933Z,5.07
2022-07-29T19:22:17.090Z,4.57
2022-07-29T19:24:46.798Z,4.55
2022-07-29T19:27:26.354Z,4.97
2022-07-29T19:29:58.778Z,4.32
2022-07-29T19:32:39.200Z,4.57
2022-07-29T19:35:31.446Z,4.68
2022-07-29T19:38:02.161Z,4.78
2022-07-29T19:40:31.042Z,4.95
2022-07-29T19:43:01.057Z,4.85
2022-07-29T19:45:30.724Z,4.40
2022-07-29T19:48:01.674Z,5.32
2022-07-29T19:50:31.042Z,4.70
2022-07-29T19:53:00.857Z,4.78
2022-07-29T19:55:29.822Z,5.30
2022-07-29T19:57:59.616Z,5.03
2022-07-29T20:00:29.289Z,4.70
2022-07-29T20:02:59.996Z,4.60
2022-07-29T20:05:29.010Z,5.10
2022-07-29T20:07:58.149Z,5.25
2022-07-29T20:10:27.100Z,5.18
2022-07-29T20:12:56.123Z,5.00
2022-07-29T20:15:25.026Z,4.90
2022-07-29T20:17:57.212Z,5.05
2022-07-29T20:20:27.299Z,5.25
2022-07-29T20:22:56.802Z,4.93
2022-07-29T20:25:26.134Z,5.10
2022-07-29T20:27:54.933Z,5.25
2022-07-29T20:30:33.551Z,5.13
2022-07-29T20:33:02.511Z,4.95
2022-07-29T20:35:32.328Z,5.53
2022-07-29T20:38:01.464Z,5.18
2022-07-29T20:40:30.416Z,5.70
2022-07-29T20:42:59.416Z,5.55
2022-07-29T20:45:28.237Z,5.03
2022-07-29T20:47:57.045Z,5.00
2022-07-29T20:50:25.927Z,5.40
2022-07-29T20:52:54.759Z,5.22
2022-07-29T20:55:23.753Z,5.45
2022-07-29T20:57:52.556Z,5.32
2022-07-29T21:00:21.409Z,5.22
2022-07-29T21:03:01.115Z,4.97
2022-07-29T21:05:30.324Z,5.03
2022-07-29T21:08:04.052Z,5.60
2022-07-29T21:10:32.883Z,5.88
2022-07-29T21:13:10.438Z,5.80
2022-07-29T21:15:42.696Z,5.47
2022-07-29T21:18:27.399Z,5.65
2022-07-29T21:21:01.824Z,5.82
2022-07-29T21:23:31.745Z,4.82
2022-07-29T21:26:00.576Z,5.62
2022-07-29T21:28:41.803Z,5.32
2022-07-29T21:31:17.178Z,5.88
2022-07-29T21:33:56.161Z,5.63
2022-07-29T21:39:13.764Z,5.45
2022-07-29T21:41:42.657Z,5.60
2022-07-29T21:44:11.508Z,5.43
2022-07-29T21:46:40.379Z,5.63
2022-07-29T21:49:09.293Z,5.70
2022-07-29T21:51:38.208Z,5.50
2022-07-29T21:54:17.096Z,6.10
2022-07-29T21:56:51.411Z,4.83
2022-07-29T21:59:30.869Z,5.50
2022-07-29T22:02:02.827Z,5.70
2022-07-29T22:04:32.674Z,6.05
2022-07-29T22:07:11.511Z,5.50
2022-07-29T22:09:40.563Z,5.40
2022-07-29T22:12:09.809Z,6.30
2022-07-29T22:14:48.684Z,5.30
2022-07-29T22:17:20.215Z,6.40
2022-07-29T22:19:49.049Z,5.82
2022-07-29T22:22:17.955Z,5.85
2022-07-29T22:24:47.150Z,6.35
2022-07-29T22:27:15.980Z,5.95
2022-07-29T22:29:44.843Z,6.00
2022-07-29T22:32:18.104Z,6.40
2022-07-29T22:34:56.165Z,6.13
2022-07-29T22:37:25.107Z,5.63
2022-07-29T22:39:53.910Z,6.10
2022-07-29T22:42:22.757Z,6.47
2022-07-29T22:44:51.600Z,5.88
2022-07-29T22:47:45.984Z,5.90
2022-07-29T22:50:09.406Z,5.68
2022-07-29T22:52:43.777Z,6.35
2022-07-29T22:55:23.050Z,6.03
2022-07-29T22:57:51.876Z,5.95
2022-07-29T23:00:25.464Z,6.38
2022-07-29T23:02:54.266Z,5.85
2022-07-29T23:05:28.276Z,6.25
2022-07-29T23:08:07.341Z,6.38
2022-07-29T23:10:36.194Z,6.65
2022-07-29T23:13:05.108Z,6.45
2022-07-29T23:15:33.951Z,6.38
2022-07-29T23:18:07.905Z,6.30
2022-07-29T23:20:36.859Z,6.30
2022-07-29T23:23:06.123Z,5.97
2022-07-29T23:25:35.130Z,6.35
2022-07-29T23:28:04.214Z,6.60
2022-07-29T23:30:33.145Z,6.75
2022-07-29T23:33:02.060Z,6.18
2022-07-29T23:35:30.960Z,6.28
2022-07-29T23:37:59.863Z,6.65
2022-07-29T23:40:38.233Z,6.95
2022-07-29T23:43:10.569Z,6.97
2022-07-29T23:45:44.975Z,6.45
2022-07-29T23:48:22.694Z,6.43
2022-07-29T23:50:51.485Z,6.50
2022-07-29T23:53:20.390Z,6.88
2022-07-29T23:55:49.499Z,6.82
2022-07-29T23:58:18.322Z,6.85
